| time (UTC) | temp F | wind direction | speed knots | gust knots | rain 1hr in | rain 24hr in | rain mn in | humidity % | barometer mb |
| 20260509014534 | 75 | 147 | 0.9 | 1.7 | 0.00 | 0.00 | 0.00 | 25 | 1012.6 |
| 20260509013532 | 75 | 157 | 1.7 | 2.6 | 0.00 | 0.00 | 0.00 | 23 | 1012.6 |
| 20260509012528 | 76 | 154 | 1.7 | 2.6 | 0.00 | 0.00 | 0.00 | 23 | 1012.7 |
| 20260509011526 | 77 | 178 | 1.7 | 3.5 | 0.00 | 0.00 | 0.00 | 22 | 1012.7 |
| 20260509010523 | 77 | 154 | 1.7 | 5.2 | 0.00 | 0.00 | 0.00 | 21 | 1012.8 |
| 20260509005540 | 77 | 149 | 1.7 | 3.5 | 0.00 | 0.00 | 0.00 | 21 | 1012.8 |
| 20260509004538 | 78 | 166 | 1.7 | 3.5 | 0.00 | 0.00 | 0.00 | 20 | 1012.9 |
| 20260509003555 | 78 | 151 | 1.7 | 3.5 | 0.00 | 0.00 | 0.00 | 21 | 1013.0 |
| 20260509002532 | 78 | 173 | 2.6 | 6.1 | 0.00 | 0.00 | 0.00 | 20 | 1013.1 |
| 20260509001530 | 79 | 195 | 1.7 | 2.6 | 0.00 | 0.00 | 0.00 | 20 | 1013.2 |
| 20260509000525 | 78 | 189 | 2.6 | 7.0 | 0.00 | 0.00 | 0.00 | 21 | 1013.3 |
| 20260508235542 | 78 | 219 | 2.6 | 5.2 | 0.00 | 0.00 | 0.00 | 21 | 1013.2 |
| 20260508234540 | 77 | 196 | 2.6 | 6.1 | 0.00 | 0.00 | 0.00 | 21 | 1013.4 |
| 20260508233536 | 79 | 193 | 1.7 | 7.8 | 0.00 | 0.00 | 0.00 | 20 | 1013.4 |
| 20260508232554 | 79 | 202 | 1.7 | 5.2 | 0.00 | 0.00 | 0.00 | 20 | 1013.5 |
| 20260508231551 | 79 | 229 | 3.5 | 6.1 | 0.00 | 0.00 | 0.00 | 20 | 1013.5 |
| 20260508230548 | 77 | 234 | 3.5 | 7.0 | 0.00 | 0.00 | 0.00 | 22 | 1013.4 |
| 20260508225525 | 79 | 214 | 1.7 | 6.1 | 0.00 | 0.00 | 0.00 | 20 | 1013.7 |
| 20260508224543 | 80 | 210 | 1.7 | 3.5 | 0.00 | 0.00 | 0.00 | 20 | 1013.7 |
| 20260508223540 | 79 | 203 | 1.7 | 3.5 | 0.00 | 0.00 | 0.00 | 21 | 1013.9 |
| 20260508222539 | 78 | 23 | 1.7 | 3.5 | 0.00 | 0.00 | 0.00 | 18 | 1014.1 |
| 20260508221535 | 79 | 238 | 3.5 | 7.0 | 0.00 | 0.00 | 0.00 | 20 | 1014.3 |
| 20260508220532 | 78 | 225 | 1.7 | 2.6 | 0.00 | 0.00 | 0.00 | 20 | 1014.6 |
| 20260508215528 | 78 | 261 | 2.6 | 6.1 | 0.00 | 0.00 | 0.00 | 20 | 1014.7 |
| 20260508214525 | 77 | 345 | 1.7 | 5.2 | 0.00 | 0.00 | 0.00 | 21 | 1014.7 |
| 20260508213523 | 78 | 230 | 2.6 | 6.1 | 0.00 | 0.00 | 0.00 | 21 | 1014.8 |
| 20260508212540 | 78 | 238 | 0.9 | 3.5 | 0.00 | 0.00 | 0.00 | 20 | 1015.0 |
| 20260508211537 | 77 | 226 | 3.5 | 6.1 | 0.00 | 0.00 | 0.00 | 21 | 1015.2 |
| 20260508210553 | 77 | 228 | 2.6 | 7.0 | 0.00 | 0.00 | 0.00 | 22 | 1015.2 |
| 20260508205551 | 76 | 226 | 3.5 | 7.0 | 0.00 | 0.00 | 0.00 | 23 | 1015.3 |
| 20260508204528 | 76 | 223 | 1.7 | 7.0 | 0.00 | 0.00 | 0.00 | 24 | 1015.3 |
| 20260508203524 | 76 | 242 | 0.9 | 2.6 | 0.00 | 0.00 | 0.00 | 23 | 1015.5 |
| 20260508202542 | 75 | 299 | 2.6 | 5.2 | 0.00 | 0.00 | 0.00 | 24 | 1015.5 |
| 20260508201538 | 76 | 220 | 3.5 | 7.0 | 0.00 | 0.00 | 0.00 | 27 | 1015.6 |
| 20260508200535 | 77 | 246 | 2.6 | 7.0 | 0.00 | 0.00 | 0.00 | 24 | 1015.8 |
| 20260508195532 | 76 | 31 | 1.7 | 3.5 | 0.00 | 0.00 | 0.00 | 23 | 1015.6 |
| 20260508194529 | 76 | 353 | 1.7 | 5.2 | 0.00 | 0.00 | 0.00 | 24 | 1015.7 |
| 20260508193526 | 76 | 12 | 2.6 | 6.1 | 0.00 | 0.00 | 0.00 | 24 | 1015.8 |
| 20260508192523 | 75 | 291 | 1.7 | 3.5 | 0.00 | 0.00 | 0.00 | 23 | 1015.9 |
| 20260508191540 | 74 | 349 | 2.6 | 5.2 | 0.00 | 0.00 | 0.00 | 26 | 1016.1 |
| 20260508190538 | 74 | 242 | 3.5 | 7.0 | 0.00 | 0.00 | 0.00 | 27 | 1016.0 |
| 20260508185535 | 74 | 214 | 1.7 | 3.5 | 0.00 | 0.00 | 0.00 | 30 | 1016.0 |
| 20260508184532 | 74 | 207 | 3.5 | 6.1 | 0.00 | 0.00 | 0.00 | 29 | 1016.1 |
| 20260508183530 | 73 | 293 | 1.7 | 5.2 | 0.00 | 0.00 | 0.00 | 32 | 1016.2 |
| 20260508182527 | 73 | 213 | 3.5 | 7.0 | 0.00 | 0.00 | 0.00 | 33 | 1016.3 |
| 20260508181524 | 72 | 142 | 2.6 | 5.2 | 0.00 | 0.00 | 0.00 | 33 | 1016.5 |
| 20260508180541 | 73 | 230 | 3.5 | 7.8 | 0.00 | 0.00 | 0.00 | 32 | 1016.5 |
| 20260508175539 | 71 | 260 | 1.7 | 2.6 | 0.00 | 0.00 | 0.00 | 32 | 1016.6 |
| 20260508174536 | 71 | 228 | 3.5 | 7.0 | 0.00 | 0.00 | 0.00 | 34 | 1016.7 |
| 20260508173533 | 71 | 228 | 3.5 | 5.2 | 0.00 | 0.00 | 0.00 | 32 | 1016.7 |
| 20260508172550 | 72 | 247 | 1.7 | 3.5 | 0.00 | 0.00 | 0.00 | 30 | 1016.7 |
| 20260508171528 | 71 | 218 | 1.7 | 3.5 | 0.00 | 0.00 | 0.00 | 32 | 1016.6 |
| 20260508170525 | 71 | 246 | 1.7 | 2.6 | 0.00 | 0.00 | 0.00 | 31 | 1016.6 |
| 20260508165543 | 71 | 199 | 0.9 | 1.7 | 0.00 | 0.00 | 0.00 | 33 | 1016.6 |
| 20260508164600 | 71 | 233 | 0.9 | 1.7 | 0.00 | 0.00 | 0.00 | 34 | 1016.7 |
| 20260508163536 | 70 | 236 | 0.9 | 1.7 | 0.00 | 0.00 | 0.00 | 35 | 1016.8 |
| 20260508162534 | 69 | 196 | 1.7 | 2.6 | 0.00 | 0.00 | 0.00 | 36 | 1016.7 |
| 20260508161551 | 68 | 174 | 0.9 | 1.7 | 0.00 | 0.00 | 0.00 | 37 | 1016.7 |
| 20260508160528 | 67 | 91 | 0.9 | 1.7 | 0.00 | 0.00 | 0.00 | 38 | 1016.6 |
| 20260508155526 | 66 | 81 | 1.7 | 3.5 | 0.00 | 0.00 | 0.00 | 39 | 1016.5 |
| 20260508154523 | 65 | 62 | 2.6 | 3.5 | 0.00 | 0.00 | 0.00 | 40 | 1016.5 |
| 20260508153602 | 65 | 142 | 1.7 | 3.5 | 0.00 | 0.00 | 0.00 | 42 | 1016.4 |
| 20260508152618 | 64 | 129 | 1.7 | 3.5 | 0.00 | 0.00 | 0.00 | 42 | 1016.5 |
| 20260508151535 | 63 | 118 | 1.7 | 2.6 | 0.00 | 0.00 | 0.00 | 43 | 1016.4 |
| 20260508150533 | 62 | 141 | 1.7 | 3.5 | 0.00 | 0.00 | 0.00 | 44 | 1016.5 |
| 20260508145530 | 61 | 88 | 1.7 | 2.6 | 0.00 | 0.00 | 0.00 | 45 | 1016.4 |
| 20260508144527 | 60 | 92 | 1.7 | 3.5 | 0.00 | 0.00 | 0.00 | 46 | 1016.3 |
| 20260508143524 | 59 | 112 | 1.7 | 2.6 | 0.00 | 0.00 | 0.00 | 45 | 1016.3 |
| 20260508142601 | 58 | 125 | 1.7 | 2.6 | 0.00 | 0.00 | 0.00 | 49 | 1016.2 |
| 20260508141539 | 56 | 158 | 0.9 | 1.7 | 0.00 | 0.00 | 0.00 | 51 | 1016.2 |
| 20260508140601 | 54 | 187 | 0.9 | 1.7 | 0.00 | 0.00 | 0.00 | 57 | 1016.1 |
| 20260508135533 | 53 | 170 | 0.9 | 1.7 | 0.00 | 0.00 | 0.00 | 58 | 1015.9 |
| 20260508134530 | 53 | 119 | 0.9 | 1.7 | 0.00 | 0.00 | 0.00 | 57 | 1015.8 |
| 20260508133529 | 53 | 100 | 0.9 | 1.7 | 0.00 | 0.00 | 0.00 | 56 | 1015.6 |
| 20260508132524 | 52 | 153 | 0.9 | 1.7 | 0.00 | 0.00 | 0.00 | 58 | 1015.6 |
| 20260508131542 | 50 | 184 | 0.0 | 0.9 | 0.00 | 0.00 | 0.00 | 59 | 1015.5 |
| 20260508130540 | 48 | 185 | 0.0 | 0.9 | 0.00 | 0.00 | 0.00 | 66 | 1015.3 |
| 20260508125538 | 47 | 163 | 0.0 | 0.9 | 0.00 | 0.00 | 0.00 | 68 | 1015.2 |
| 20260508124534 | 45 | 163 | 0.0 | 0.0 | 0.00 | 0.00 | 0.00 | 73 | 1015.1 |
| 20260508123532 | 45 | 194 | 0.0 | 0.9 | 0.00 | 0.00 | 0.00 | 73 | 1015.1 |
| 20260508122529 | 46 | 160 | 0.0 | 0.9 | 0.00 | 0.00 | 0.00 | 72 | 1015.0 |
| 20260508121606 | 46 | 164 | 0.9 | 0.9 | 0.00 | 0.00 | 0.00 | 73 | 1015.0 |
| 20260508120523 | 46 | 170 | 0.0 | 0.9 | 0.00 | 0.00 | 0.00 | 73 | 1014.8 |
| 20260508115540 | 46 | 194 | 0.0 | 0.9 | 0.00 | 0.00 | 0.00 | 74 | 1014.8 |
| 20260508114538 | 46 | 166 | 0.9 | 1.7 | 0.00 | 0.00 | 0.00 | 73 | 1014.6 |
| 20260508113535 | 47 | 199 | 0.0 | 1.7 | 0.00 | 0.00 | 0.00 | 71 | 1014.5 |
| 20260508112532 | 48 | 129 | 0.0 | 0.0 | 0.00 | 0.00 | 0.00 | 68 | 1014.6 |
| 20260508111529 | 49 | 130 | 0.9 | 0.9 | 0.00 | 0.00 | 0.00 | 68 | 1014.6 |
| 20260508110526 | 49 | 130 | 0.9 | 1.7 | 0.00 | 0.00 | 0.00 | 66 | 1014.5 |
| 20260508105544 | 50 | 130 | 0.0 | 0.9 | 0.00 | 0.00 | 0.00 | 64 | 1014.4 |
| 20260508104622 | 49 | 130 | 0.9 | 0.9 | 0.00 | 0.00 | 0.00 | 64 | 1014.3 |
| 20260508103538 | 50 | 158 | 0.0 | 0.9 | 0.00 | 0.00 | 0.00 | 63 | 1014.3 |
| 20260508102535 | 50 | 158 | 0.0 | 0.9 | 0.00 | 0.00 | 0.00 | 64 | 1014.2 |
| 20260508101532 | 49 | 167 | 0.9 | 0.9 | 0.00 | 0.00 | 0.00 | 65 | 1014.2 |
| 20260508100530 | 49 | 200 | 0.9 | 0.9 | 0.00 | 0.00 | 0.00 | 66 | 1014.1 |
| 20260508095526 | 49 | 201 | 0.0 | 0.9 | 0.00 | 0.00 | 0.00 | 66 | 1014.1 |
| 20260508094523 | 49 | 145 | 0.0 | 0.9 | 0.00 | 0.00 | 0.00 | 66 | 1014.2 |
| 20260508093541 | 47 | 156 | 0.9 | 0.9 | 0.00 | 0.00 | 0.00 | 71 | 1014.0 |
| 20260508092538 | 48 | 160 | 0.9 | 0.9 | 0.00 | 0.00 | 0.00 | 70 | 1014.0 |
| 20260508091535 | 50 | 210 | 1.7 | 3.5 | 0.00 | 0.00 | 0.00 | 67 | 1014.3 |
| 20260508090533 | 50 | 124 | 0.9 | 1.7 | 0.00 | 0.00 | 0.00 | 65 | 1014.0 |
| 20260508085529 | 50 | 114 | 0.9 | 0.9 | 0.00 | 0.00 | 0.00 | 65 | 1014.1 |
| 20260508084527 | 50 | 120 | 0.9 | 1.7 | 0.00 | 0.00 | 0.00 | 65 | 1014.1 |
| 20260508083524 | 50 | 131 | 0.0 | 0.9 | 0.00 | 0.00 | 0.00 | 64 | 1014.1 |
| 20260508082541 | 51 | 130 | 0.0 | 0.9 | 0.00 | 0.00 | 0.00 | 62 | 1014.2 |
| 20260508081558 | 51 | 123 | 0.9 | 0.9 | 0.00 | 0.00 | 0.00 | 63 | 1014.2 |
| 20260508080535 | 51 | 109 | 0.9 | 0.9 | 0.00 | 0.00 | 0.00 | 61 | 1014.2 |
| 20260508075532 | 51 | 142 | 0.9 | 0.9 | 0.00 | 0.00 | 0.00 | 62 | 1014.2 |
| 20260508074529 | 52 | 143 | 0.0 | 0.9 | 0.00 | 0.00 | 0.00 | 60 | 1014.1 |
| 20260508073526 | 53 | 142 | 0.0 | 0.9 | 0.00 | 0.00 | 0.00 | 58 | 1014.1 |
| 20260508072523 | 54 | 142 | 0.9 | 0.9 | 0.00 | 0.00 | 0.00 | 55 | 1014.1 |
| 20260508071540 | 54 | 143 | 0.9 | 1.7 | 0.00 | 0.00 | 0.00 | 55 | 1014.0 |
| 20260508070538 | 54 | 143 | 0.9 | 0.9 | 0.00 | 0.00 | 0.00 | 55 | 1013.9 |
| 20260508065535 | 55 | 143 | 0.9 | 0.9 | 0.00 | 0.00 | 0.00 | 54 | 1014.0 |
| 20260508064553 | 55 | 143 | 0.9 | 0.9 | 0.00 | 0.00 | 0.00 | 55 | 1014.0 |
| 20260508063529 | 55 | 143 | 0.0 | 0.9 | 0.00 | 0.00 | 0.00 | 55 | 1013.9 |
| 20260508062527 | 55 | 143 | 0.0 | 0.9 | 0.00 | 0.00 | 0.00 | 56 | 1013.8 |
| 20260508061546 | 56 | 193 | 0.9 | 0.9 | 0.00 | 0.00 | 0.00 | 56 | 1013.8 |
| 20260508060542 | 56 | 214 | 0.0 | 0.9 | 0.00 | 0.00 | 0.00 | 53 | 1013.7 |
| 20260508055539 | 58 | 231 | 0.9 | 3.5 | 0.00 | 0.00 | 0.00 | 51 | 1013.7 |
| 20260508054539 | 59 | 349 | 0.0 | 0.0 | 0.00 | 0.00 | 0.00 | 49 | 1013.7 |
| 20260508053554 | 58 | 350 | 0.9 | 0.9 | 0.00 | 0.00 | 0.00 | 48 | 1013.7 |
| 20260508052531 | 59 | 0.0 | 0.0 | 0.00 | 0.00 | 0.00 | 48 | 1013.7 | |
| 20260508051528 | 57 | 350 | 0.9 | 0.9 | 0.00 | 0.00 | 0.00 | 51 | 1013.7 |
| 20260508050526 | 58 | 349 | 0.0 | 0.9 | 0.00 | 0.00 | 0.00 | 52 | 1013.6 |
| 20260508045522 | 58 | 349 | 0.9 | 0.9 | 0.00 | 0.00 | 0.00 | 51 | 1013.6 |
| 20260508044540 | 60 | 348 | 0.9 | 0.9 | 0.00 | 0.00 | 0.00 | 48 | 1013.5 |
| 20260508043537 | 60 | 347 | 0.9 | 0.9 | 0.00 | 0.00 | 0.00 | 48 | 1013.5 |
| 20260508042537 | 62 | 90 | 0.9 | 1.7 | 0.00 | 0.00 | 0.00 | 44 | 1013.5 |
| 20260508041551 | 62 | 94 | 0.9 | 0.9 | 0.00 | 0.00 | 0.00 | 43 | 1013.4 |
| 20260508040529 | 62 | 93 | 0.9 | 0.9 | 0.00 | 0.00 | 0.00 | 42 | 1013.2 |
| 20260508035526 | 63 | 93 | 0.9 | 0.9 | 0.00 | 0.00 | 0.00 | 42 | 1013.2 |
| 20260508034522 | 63 | 90 | 0.9 | 1.7 | 0.00 | 0.00 | 0.00 | 42 | 1013.2 |
| 20260508033539 | 62 | 73 | 1.7 | 2.6 | 0.00 | 0.00 | 0.00 | 44 | 1013.0 |
| 20260508032537 | 64 | 231 | 0.9 | 0.9 | 0.00 | 0.00 | 0.00 | 41 | 1012.8 |
| 20260508031534 | 65 | 231 | 0.0 | 0.9 | 0.00 | 0.00 | 0.00 | 40 | 1012.6 |
| 20260508030531 | 65 | 231 | 0.0 | 0.0 | 0.00 | 0.00 | 0.00 | 38 | 1012.5 |
| 20260508025529 | 66 | 231 | 0.0 | 0.0 | 0.00 | 0.00 | 0.00 | 37 | 1012.5 |
| 20260508024525 | 67 | 231 | 0.0 | 0.0 | 0.00 | 0.00 | 0.00 | 38 | 1012.4 |
| 20260508023522 | 68 | 231 | 0.0 | 0.0 | 0.00 | 0.00 | 0.00 | 35 | 1012.4 |
| 20260508022539 | 70 | 231 | 0.0 | 0.9 | 0.00 | 0.00 | 0.00 | 33 | 1012.4 |
| 20260508021557 | 70 | 233 | 0.9 | 1.7 | 0.00 | 0.00 | 0.00 | 33 | 1012.3 |
| 20260508020555 | 71 | 233 | 0.9 | 1.7 | 0.00 | 0.00 | 0.00 | 33 | 1012.3 |
| 20260508015531 | 72 | 232 | 2.6 | 2.6 | 0.00 | 0.00 | 0.00 | 32 | 1012.4 |